Time;durP1;ratioP1;P1;durP2;ratioP2;P2;SDS_P1;SDS_P2;PMS_P1;PMS_P2;Temp;Humidity;BMP_temperature;BMP_pressure;BME280_temperature;BME280_humidity;BME280_pressure;Samples;Min_cycle;Max_cycle;Signal;HPM_P1;HPM_P2
2020/12/17 05:48:05;;;;;;;5.70;3.50;;;;;;;;;;6182117;23;20029;-80
2020/12/17 05:50:32;;;;;;;5.30;3.22;;;;;;;;;;6182571;23;20013;-80
2020/12/17 05:52:59;;;;;;;5.68;3.83;;;;;;;;;;6182772;23;20072;-79
2020/12/17 05:55:26;;;;;;;5.75;3.78;;;;;;;;;;6182942;23;20494;-78
2020/12/17 05:57:52;;;;;;;6.53;3.40;;;;;;;;;;6182765;23;20047;-80
2020/12/17 06:00:20;;;;;;;4.85;3.63;;;;;;;;;;6186769;23;20001;-79
2020/12/17 06:02:46;;;;;;;5.80;4.15;;;;;;;;;;6189922;23;20001;-79
2020/12/17 06:05:13;;;;;;;8.93;4.03;;;;;;;;;;6162025;23;20015;-79
2020/12/17 06:07:47;;;;;;;5.03;3.50;;;;;;;;;;6189743;23;20096;-79
2020/12/17 06:10:29;;;;;;;4.38;3.00;;;;;;;;;;6162013;23;20059;-80
2020/12/17 06:12:57;;;;;;;5.70;3.30;;;;;;;;;;6162650;23;20040;-79
2020/12/17 06:17:43;;;;;;;5.20;3.00;;;;;;;;;;5108143;27;20356;-79
2020/12/17 06:20:09;;;;;;;4.95;3.42;;;;;;;;;;5096450;28;20111;-79
2020/12/17 06:22:35;;;;;;;4.70;2.80;;;;;;;;;;5095261;28;20071;-79
2020/12/17 06:25:01;;;;;;;5.95;3.30;;;;;;;;;;5091430;28;20024;-79
2020/12/17 06:27:31;;;;;;;5.47;4.18;;;;;;;;;;5091498;28;20594;-79
2020/12/17 06:30:07;;;;;;;5.65;3.63;;;;;;;;;;5095171;28;20039;-79
2020/12/17 06:32:34;;;;;;;4.03;2.78;;;;;;;;;;5095311;28;20012;-79
2020/12/17 06:35:04;;;;;;;5.38;3.08;;;;;;;;;;5093835;28;20028;-79
2020/12/17 06:37:31;;;;;;;4.38;3.00;;;;;;;;;;5102101;28;20036;-79
2020/12/17 06:39:57;;;;;;;6.78;3.30;;;;;;;;;;5104652;28;20027;-78
2020/12/17 06:42:32;;;;;;;5.15;3.10;;;;;;;;;;5102006;28;20035;-79
2020/12/17 06:44:58;;;;;;;7.63;2.97;;;;;;;;;;5106117;28;20028;-80
2020/12/17 06:47:28;;;;;;;4.22;3.00;;;;;;;;;;5087186;28;20373;-78
2020/12/17 06:49:55;;;;;;;6.72;2.85;;;;;;;;;;5089859;28;20033;-79
2020/12/17 06:52:21;;;;;;;6.43;2.92;;;;;;;;;;5090367;28;20036;-79
2020/12/17 06:54:47;;;;;;;4.90;2.45;;;;;;;;;;5093253;28;20028;-79
2020/12/17 06:57:16;;;;;;;4.47;2.65;;;;;;;;;;5084599;28;20372;-79
2020/12/17 07:02:01;;;;;;;5.80;3.10;;;;;;;;;;5111042;27;20380;-81
2020/12/17 07:04:53;;;;;;;6.00;2.95;;;;;;;;;;5118609;28;20102;-81
2020/12/17 07:07:23;;;;;;;5.05;3.20;;;;;;;;;;5098481;28;20404;-81
2020/12/17 07:09:50;;;;;;;5.03;3.25;;;;;;;;;;5099964;28;20028;-80
2020/12/17 07:12:34;;;;;;;5.18;3.25;;;;;;;;;;5101181;28;20020;-80
2020/12/17 07:15:01;;;;;;;6.80;3.85;;;;;;;;;;5097679;28;20051;-80
2020/12/17 07:17:27;;;;;;;8.75;4.47;;;;;;;;;;5101580;28;20035;-79
2020/12/17 07:19:53;;;;;;;7.93;5.25;;;;;;;;;;5104516;28;20027;-81
2020/12/17 07:22:19;;;;;;;7.65;5.13;;;;;;;;;;5108304;28;20031;-81
2020/12/17 07:24:47;;;;;;;13.60;6.72;;;;;;;;;;5099867;28;20369;-81
2020/12/17 07:29:32;;;;;;;11.95;7.65;;;;;;;;;;5083393;28;20386;-80
2020/12/17 07:32:18;;;;;;;10.82;7.55;;;;;;;;;;5086697;28;20020;-81
2020/12/17 07:34:44;;;;;;;14.05;8.70;;;;;;;;;;5068806;28;20054;-80
2020/12/17 07:37:10;;;;;;;18.60;10.50;;;;;;;;;;5042353;28;20021;-80
2020/12/17 07:39:36;;;;;;;19.30;11.32;;;;;;;;;;5039053;28;20021;-80
2020/12/17 07:42:05;;;;;;;14.15;9.82;;;;;;;;;;5055830;28;20033;-80
2020/12/17 07:44:34;;;;;;;11.88;7.63;;;;;;;;;;5059274;28;20035;-81
2020/12/17 07:47:18;;;;;;;9.93;5.60;;;;;;;;;;5050216;28;20048;-81
2020/12/17 07:49:44;;;;;;;8.35;5.28;;;;;;;;;;5050474;28;20036;-81
2020/12/17 07:52:10;;;;;;;10.63;5.32;;;;;;;;;;5050836;28;20025;-81
2020/12/17 07:54:36;;;;;;;8.98;5.82;;;;;;;;;;5033697;28;20021;-81
2020/12/17 07:57:02;;;;;;;8.32;5.95;;;;;;;;;;5051940;28;20021;-81
2020/12/17 07:59:28;;;;;;;11.02;6.65;;;;;;;;;;5056608;28;20060;-80
2020/12/17 08:02:04;;;;;;;12.98;6.22;;;;;;;;;;5059123;28;20481;-81
2020/12/17 08:04:30;;;;;;;10.02;6.03;;;;;;;;;;5064907;28;20123;-81
2020/12/17 08:06:56;;;;;;;16.33;6.68;;;;;;;;;;5052584;28;20033;-80
2020/12/17 08:09:23;;;;;;;13.65;7.93;;;;;;;;;;5062356;28;20033;-81
2020/12/17 08:11:56;;;;;;;14.15;7.97;;;;;;;;;;5061421;28;20013;-81
2020/12/17 08:14:23;;;;;;;15.93;9.40;;;;;;;;;;5063664;28;20367;-81
2020/12/17 08:16:49;;;;;;;12.52;7.53;;;;;;;;;;5057233;28;20432;-81
2020/12/17 08:19:15;;;;;;;14.82;7.97;;;;;;;;;;5048814;28;20022;-81
2020/12/17 08:21:42;;;;;;;15.07;8.95;;;;;;;;;;5047585;28;20473;-81
2020/12/17 08:24:11;;;;;;;15.63;9.32;;;;;;;;;;5061973;28;20039;-80
2020/12/17 08:26:37;;;;;;;11.55;7.63;;;;;;;;;;5044254;28;20059;-81
2020/12/17 08:29:03;;;;;;;12.95;8.15;;;;;;;;;;5051427;28;20090;-81
2020/12/17 08:31:29;;;;;;;13.65;9.38;;;;;;;;;;5054138;28;20017;-81
2020/12/17 08:33:56;;;;;;;13.02;7.20;;;;;;;;;;5051625;28;20021;-81
2020/12/17 08:36:33;;;;;;;9.00;5.78;;;;;;;;;;5038234;28;20025;-81
2020/12/17 08:39:02;;;;;;;10.55;6.80;;;;;;;;;;5048986;28;20104;-81
2020/12/17 08:41:34;;;;;;;7.85;5.22;;;;;;;;;;5049868;28;20021;-80
2020/12/17 08:44:02;;;;;;;9.40;5.63;;;;;;;;;;5028578;28;20083;-80
2020/12/17 08:46:28;;;;;;;9.05;6.55;;;;;;;;;;5034629;28;20397;-80
2020/12/17 08:48:54;;;;;;;10.05;6.93;;;;;;;;;;5023951;28;20041;-80
2020/12/17 08:51:22;;;;;;;11.20;7.20;;;;;;;;;;5041653;28;20018;-80
2020/12/17 08:53:48;;;;;;;8.82;5.85;;;;;;;;;;5040099;28;20055;-80
2020/12/17 08:56:19;;;;;;;10.20;6.32;;;;;;;;;;5042338;28;20033;-80
2020/12/17 09:01:12;;;;;;;10.57;6.40;;;;;;;;;;5117356;27;20388;-80
2020/12/17 09:03:43;;;;;;;15.05;6.55;;;;;;;;;;5099684;28;20028;-80
2020/12/17 09:06:09;;;;;;;11.82;6.10;;;;;;;;;;5094418;28;20056;-80
2020/12/17 09:08:35;;;;;;;7.68;4.95;;;;;;;;;;5090076;28;20041;-81
2020/12/17 09:11:01;;;;;;;7.78;3.92;;;;;;;;;;5105378;28;20032;-81
2020/12/17 09:13:27;;;;;;;8.25;4.28;;;;;;;;;;5105746;28;20063;-80
2020/12/17 09:15:58;;;;;;;7.45;3.78;;;;;;;;;;5109796;28;20106;-81
2020/12/17 09:18:24;;;;;;;7.45;4.55;;;;;;;;;;5099950;28;20032;-80
2020/12/17 09:21:04;;;;;;;7.97;5.20;;;;;;;;;;5092847;28;20031;-80
2020/12/17 09:25:48;;;;;;;7.35;5.22;;;;;;;;;;5086311;28;20421;-79
2020/12/17 09:28:21;;;;;;;5.50;4.00;;;;;;;;;;5072419;28;20033;-79
2020/12/17 09:33:06;;;;;;;5.60;4.43;;;;;;;;;;5110957;27;21010;-80
2020/12/17 09:35:33;;;;;;;8.32;5.07;;;;;;;;;;5095472;28;20103;-80
2020/12/17 09:38:04;;;;;;;4.97;4.18;;;;;;;;;;5092680;28;20051;-80
2020/12/17 09:40:31;;;;;;;6.03;3.97;;;;;;;;;;5085842;28;20498;-80
2020/12/17 09:43:05;;;;;;;4.10;3.22;;;;;;;;;;5086155;28;20091;-79
2020/12/17 09:45:33;;;;;;;6.68;3.60;;;;;;;;;;5091188;28;20029;-79
2020/12/17 09:47:59;;;;;;;6.95;3.95;;;;;;;;;;5091209;28;20123;-80
2020/12/17 09:50:25;;;;;;;10.05;4.20;;;;;;;;;;5087669;28;20034;-79
2020/12/17 09:52:51;;;;;;;10.48;3.67;;;;;;;;;;5091959;28;20499;-80
2020/12/17 09:55:17;;;;;;;11.07;7.18;;;;;;;;;;5091585;28;20016;-80
2020/12/17 09:57:44;;;;;;;8.10;5.55;;;;;;;;;;5090314;28;20024;-80
2020/12/17 10:00:12;;;;;;;10.23;6.38;;;;;;;;;;5087432;28;20029;-80
2020/12/17 10:02:39;;;;;;;11.88;7.38;;;;;;;;;;5089738;28;20030;-80
2020/12/17 10:05:05;;;;;;;14.32;6.78;;;;;;;;;;5090503;28;20435;-80
2020/12/17 10:07:31;;;;;;;15.00;6.85;;;;;;;;;;5087615;28;20035;-80
2020/12/17 10:09:57;;;;;;;21.10;10.07;;;;;;;;;;5088562;28;20112;-80
2020/12/17 10:12:24;;;;;;;19.92;11.32;;;;;;;;;;5088777;28;20060;-80
2020/12/17 10:14:50;;;;;;;20.55;10.30;;;;;;;;;;5088615;28;20085;-79
2020/12/17 10:17:16;;;;;;;27.30;13.82;;;;;;;;;;5094169;28;20103;-80
2020/12/17 10:19:42;;;;;;;26.55;14.02;;;;;;;;;;5095129;28;20020;-80
2020/12/17 10:22:08;;;;;;;28.50;17.90;;;;;;;;;;5101249;28;20038;-80
2020/12/17 10:24:34;;;;;;;22.77;14.40;;;;;;;;;;5099505;28;20031;-79
2020/12/17 10:27:01;;;;;;;16.73;10.85;;;;;;;;;;5102598;28;20034;-79
2020/12/17 10:29:27;;;;;;;13.65;9.98;;;;;;;;;;5107777;28;20024;-79
2020/12/17 10:31:55;;;;;;;20.15;11.27;;;;;;;;;;5095953;28;20043;-80
2020/12/17 10:34:20;;;;;;;22.73;12.52;;;;;;;;;;5101354;28;20024;-79
2020/12/17 10:36:46;;;;;;;27.88;18.40;;;;;;;;;;5099197;28;20013;-80
2020/12/17 10:39:13;;;;;;;37.72;24.05;;;;;;;;;;5113685;28;20035;-79
2020/12/17 10:41:39;;;;;;;55.03;32.78;;;;;;;;;;5121402;28;20032;-78
2020/12/17 10:44:05;;;;;;;52.35;30.20;;;;;;;;;;5109414;28;20083;-79
2020/12/17 10:51:07;;;;;;;54.78;35.10;;;;;;;;;;5111694;27;20725;-81
2020/12/17 10:53:33;;;;;;;50.00;30.25;;;;;;;;;;5109287;28;20073;-80
2020/12/17 10:55:59;;;;;;;48.88;29.17;;;;;;;;;;5100717;28;20062;-81
2020/12/17 10:58:25;;;;;;;38.90;26.27;;;;;;;;;;5099191;28;20476;-81
2020/12/17 11:00:51;;;;;;;35.03;23.33;;;;;;;;;;5103964;28;20020;-81
2020/12/17 11:03:17;;;;;;;38.75;23.90;;;;;;;;;;5113102;28;20585;-81
2020/12/17 11:05:43;;;;;;;32.88;23.73;;;;;;;;;;5104491;28;20015;-81
2020/12/17 11:08:09;;;;;;;30.80;20.52;;;;;;;;;;5102664;28;20157;-81
2020/12/17 11:10:35;;;;;;;21.17;15.15;;;;;;;;;;5122442;28;20103;-80
2020/12/17 11:13:01;;;;;;;20.95;15.77;;;;;;;;;;5119997;28;20047;-80
2020/12/17 11:15:27;;;;;;;18.48;13.77;;;;;;;;;;5121512;28;20045;-81
2020/12/17 11:17:53;;;;;;;17.98;11.32;;;;;;;;;;5114935;28;20028;-81
2020/12/17 11:20:19;;;;;;;15.02;10.80;;;;;;;;;;5130720;28;20031;-81
2020/12/17 11:22:45;;;;;;;12.98;9.45;;;;;;;;;;5122979;28;20019;-82
2020/12/17 11:25:11;;;;;;;17.55;9.50;;;;;;;;;;5122519;28;20027;-81
2020/12/17 11:27:37;;;;;;;13.45;8.25;;;;;;;;;;5119891;28;20035;-82
2020/12/17 11:32:22;;;;;;;10.68;7.00;;;;;;;;;;5074124;28;20392;-80
2020/12/17 11:34:50;;;;;;;8.82;6.32;;;;;;;;;;5061388;28;20021;-82
2020/12/17 11:37:16;;;;;;;10.50;6.88;;;;;;;;;;5055851;28;20032;-81
2020/12/17 11:39:42;;;;;;;8.48;5.20;;;;;;;;;;5057356;28;20477;-79
2020/12/17 11:42:08;;;;;;;7.50;5.22;;;;;;;;;;5062964;28;20029;-79
2020/12/17 11:46:53;;;;;;;6.13;4.35;;;;;;;;;;5106704;27;20353;-81
2020/12/17 11:51:36;;;;;;;9.30;5.65;;;;;;;;;;5099049;27;20851;-80
2020/12/17 11:56:20;;;;;;;7.97;4.93;;;;;;;;;;5098993;27;20688;-81
2020/12/17 12:01:28;;;;;;;10.15;6.00;;;;;;;;;;5043727;28;20037;-80
2020/12/17 12:03:54;;;;;;;10.88;6.88;;;;;;;;;;5045975;28;20025;-80
2020/12/17 12:06:20;;;;;;;9.35;5.57;;;;;;;;;;5047673;28;20029;-79
2020/12/17 12:08:46;;;;;;;7.25;4.60;;;;;;;;;;5046085;28;20024;-81
2020/12/17 12:11:11;;;;;;;9.25;4.93;;;;;;;;;;5047836;28;20057;-80
2020/12/17 12:13:37;;;;;;;7.85;3.45;;;;;;;;;;5047851;28;20523;-81
2020/12/17 12:16:03;;;;;;;6.55;3.38;;;;;;;;;;5048286;28;20492;-81
2020/12/17 12:18:29;;;;;;;5.32;3.08;;;;;;;;;;5053014;28;20049;-80
2020/12/17 12:20:59;;;;;;;6.00;3.15;;;;;;;;;;5046330;28;20029;-82
2020/12/17 12:23:25;;;;;;;6.93;3.25;;;;;;;;;;5048085;28;20020;-80
2020/12/17 12:25:51;;;;;;;7.85;4.32;;;;;;;;;;5048271;28;20393;-81
2020/12/17 12:28:17;;;;;;;6.53;4.30;;;;;;;;;;5048925;28;20475;-79
2020/12/17 12:30:43;;;;;;;4.70;3.20;;;;;;;;;;5046716;28;20037;-79
2020/12/17 12:33:09;;;;;;;4.35;2.70;;;;;;;;;;5050841;28;20033;-80
2020/12/17 12:35:35;;;;;;;8.30;3.33;;;;;;;;;;5045495;28;20057;-81
2020/12/17 12:38:01;;;;;;;4.88;2.35;;;;;;;;;;5046225;28;20491;-80
2020/12/17 12:40:27;;;;;;;5.20;2.08;;;;;;;;;;5048676;28;20032;-80
2020/12/17 12:42:53;;;;;;;3.97;2.15;;;;;;;;;;5047071;28;20021;-80
2020/12/17 12:45:19;;;;;;;5.85;3.08;;;;;;;;;;5044003;28;20123;-80
2020/12/17 12:47:45;;;;;;;4.90;3.00;;;;;;;;;;5045333;28;20103;-80
2020/12/17 12:50:11;;;;;;;4.15;2.55;;;;;;;;;;5046647;28;20033;-81
2020/12/17 12:52:37;;;;;;;4.90;2.47;;;;;;;;;;5040889;28;20025;-80
2020/12/17 12:55:03;;;;;;;8.07;2.65;;;;;;;;;;5045956;28;20083;-80
2020/12/17 12:57:29;;;;;;;5.10;2.10;;;;;;;;;;5039584;28;20024;-80
2020/12/17 12:59:55;;;;;;;3.90;1.98;;;;;;;;;;5053894;28;20101;-80
2020/12/17 13:02:21;;;;;;;3.22;1.67;;;;;;;;;;5047446;28;20465;-81
2020/12/17 13:04:47;;;;;;;4.97;2.08;;;;;;;;;;5065949;28;20033;-80
2020/12/17 13:07:13;;;;;;;5.45;2.28;;;;;;;;;;5039063;28;20036;-80
2020/12/17 13:09:39;;;;;;;4.20;2.03;;;;;;;;;;5055207;28;20028;-80
2020/12/17 13:12:05;;;;;;;5.93;2.15;;;;;;;;;;5053952;28;20025;-81
2020/12/17 13:14:31;;;;;;;4.78;1.90;;;;;;;;;;5034637;28;20028;-81
2020/12/17 13:16:57;;;;;;;4.10;2.20;;;;;;;;;;5036925;28;20070;-80
2020/12/17 13:19:23;;;;;;;4.72;2.70;;;;;;;;;;5031714;28;20483;-80
2020/12/17 13:21:49;;;;;;;8.57;1.95;;;;;;;;;;5052752;28;20143;-81
2020/12/17 13:24:15;;;;;;;5.60;2.38;;;;;;;;;;5054330;28;20500;-80
2020/12/17 13:26:41;;;;;;;3.65;2.15;;;;;;;;;;5028792;28;20025;-80
2020/12/17 13:29:08;;;;;;;3.75;2.13;;;;;;;;;;5054058;28;20053;-81
2020/12/17 13:31:34;;;;;;;3.47;2.35;;;;;;;;;;5051745;28;20531;-81
2020/12/17 13:34:00;;;;;;;6.55;2.72;;;;;;;;;;5052003;28;20111;-82
2020/12/17 13:36:26;;;;;;;4.35;2.50;;;;;;;;;;5055256;28;20505;-81
2020/12/17 13:38:52;;;;;;;5.10;2.30;;;;;;;;;;5054434;28;20142;-79
2020/12/17 13:41:18;;;;;;;3.22;1.75;;;;;;;;;;5051296;28;20017;-81
2020/12/17 13:43:44;;;;;;;3.40;2.03;;;;;;;;;;5050846;28;20476;-80
2020/12/17 13:46:10;;;;;;;5.30;2.03;;;;;;;;;;5034463;28;20037;-80
2020/12/17 13:48:36;;;;;;;4.45;1.67;;;;;;;;;;5035052;28;20401;-80
2020/12/17 13:51:03;;;;;;;3.38;1.85;;;;;;;;;;5026970;28;20049;-80
2020/12/17 13:53:29;;;;;;;5.57;1.90;;;;;;;;;;5045871;28;20446;-80
2020/12/17 13:55:56;;;;;;;3.40;2.03;;;;;;;;;;5034542;28;20043;-80
2020/12/17 13:58:22;;;;;;;5.70;1.90;;;;;;;;;;5034769;28;20444;-80
2020/12/17 14:00:48;;;;;;;3.72;2.00;;;;;;;;;;5034534;28;20057;-80
2020/12/17 14:03:14;;;;;;;5.07;1.83;;;;;;;;;;5034486;28;20025;-80
2020/12/17 14:05:39;;;;;;;2.90;1.88;;;;;;;;;;5034576;28;20623;-80
2020/12/17 14:08:05;;;;;;;3.67;1.90;;;;;;;;;;5034539;28;20389;-80
2020/12/17 14:10:31;;;;;;;3.75;2.05;;;;;;;;;;5034439;28;20435;-80
2020/12/17 14:12:57;;;;;;;5.55;2.30;;;;;;;;;;5052278;28;20032;-80
2020/12/17 14:17:42;;;;;;;5.32;2.20;;;;;;;;;;5073287;28;20409;-80
2020/12/17 14:20:08;;;;;;;3.63;1.80;;;;;;;;;;5061104;28;20422;-81
2020/12/17 14:22:34;;;;;;;5.00;2.28;;;;;;;;;;5059424;28;20543;-83
2020/12/17 14:25:00;;;;;;;3.55;2.03;;;;;;;;;;5058301;28;20060;-82
2020/12/17 14:27:27;;;;;;;3.30;1.85;;;;;;;;;;5059238;28;20052;-82
2020/12/17 14:29:53;;;;;;;7.72;4.15;;;;;;;;;;5058561;28;20024;-82
2020/12/17 14:32:19;;;;;;;9.90;6.05;;;;;;;;;;5056166;28;20500;-82
2020/12/17 14:34:45;;;;;;;4.00;2.83;;;;;;;;;;5052666;28;20029;-82
2020/12/17 14:37:12;;;;;;;4.88;2.30;;;;;;;;;;5062842;28;20055;-82
2020/12/17 14:39:38;;;;;;;4.57;2.45;;;;;;;;;;5044828;28;20026;-81
2020/12/17 14:42:04;;;;;;;3.30;1.88;;;;;;;;;;5050491;28;20505;-81
2020/12/17 14:46:49;;;;;;;3.22;1.75;;;;;;;;;;5105077;27;20393;-82
2020/12/17 14:49:15;;;;;;;3.55;1.90;;;;;;;;;;5100121;28;20039;-82
2020/12/17 14:51:41;;;;;;;4.18;2.05;;;;;;;;;;5084528;28;20365;-82
2020/12/17 14:54:07;;;;;;;10.75;4.22;;;;;;;;;;5086876;28;20078;-82
2020/12/17 14:56:33;;;;;;;5.22;2.70;;;;;;;;;;5077347;28;20055;-82
2020/12/17 14:58:59;;;;;;;4.68;2.20;;;;;;;;;;5079591;28;20024;-82
2020/12/17 15:01:25;;;;;;;4.72;2.50;;;;;;;;;;5077492;28;20480;-82
2020/12/17 15:06:09;;;;;;;6.40;2.45;;;;;;;;;;5095977;27;20380;-82
2020/12/17 15:08:35;;;;;;;4.68;2.70;;;;;;;;;;5097488;28;20542;-82
2020/12/17 15:11:03;;;;;;;4.40;2.72;;;;;;;;;;5080248;28;20460;-82
2020/12/17 15:13:31;;;;;;;4.20;2.20;;;;;;;;;;5074640;28;20016;-82
2020/12/17 15:15:57;;;;;;;5.32;2.13;;;;;;;;;;5078345;28;20118;-83
2020/12/17 15:18:23;;;;;;;8.57;4.90;;;;;;;;;;5078369;28;20032;-83
2020/12/17 15:21:04;;;;;;;6.90;3.83;;;;;;;;;;5079268;28;20021;-82
2020/12/17 15:23:31;;;;;;;15.57;10.50;;;;;;;;;;5074385;28;20059;-82
2020/12/17 15:25:57;;;;;;;5.93;3.65;;;;;;;;;;5071379;28;20099;-81
2020/12/17 15:28:23;;;;;;;8.07;5.63;;;;;;;;;;5072173;28;20025;-82
2020/12/17 15:30:49;;;;;;;4.35;2.55;;;;;;;;;;5069101;28;20543;-82
2020/12/17 15:33:15;;;;;;;3.95;2.40;;;;;;;;;;5077927;28;20025;-82
2020/12/17 15:35:41;;;;;;;4.15;2.65;;;;;;;;;;5078397;28;20028;-82
2020/12/17 15:38:07;;;;;;;4.50;2.92;;;;;;;;;;5080969;28;20024;-82
2020/12/17 15:40:32;;;;;;;4.88;2.67;;;;;;;;;;5075333;28;20115;-82
2020/12/17 15:42:58;;;;;;;7.88;2.17;;;;;;;;;;5071347;28;20535;-82
2020/12/17 15:45:24;;;;;;;3.28;1.90;;;;;;;;;;5072454;28;20500;-82
2020/12/17 15:47:50;;;;;;;3.20;1.90;;;;;;;;;;5075421;28;20488;-82
2020/12/17 15:50:16;;;;;;;5.43;2.00;;;;;;;;;;5061767;28;20031;-82
2020/12/17 15:52:42;;;;;;;5.95;1.80;;;;;;;;;;5063309;28;20028;-82
2020/12/17 15:55:09;;;;;;;3.05;1.55;;;;;;;;;;5067168;28;20050;-82
2020/12/17 15:57:34;;;;;;;3.40;1.50;;;;;;;;;;5073489;28;20024;-82
2020/12/17 16:00:00;;;;;;;2.70;1.48;;;;;;;;;;5080149;28;20035;-82
2020/12/17 16:02:29;;;;;;;4.47;1.48;;;;;;;;;;5067805;28;20122;-81
2020/12/17 16:04:55;;;;;;;39.92;2.38;;;;;;;;;;5073290;28;20028;-81
2020/12/17 16:07:24;;;;;;;2.88;1.38;;;;;;;;;;5075192;28;20025;-82
2020/12/17 16:09:50;;;;;;;18.17;1.92;;;;;;;;;;5067430;28;20414;-80
2020/12/17 16:12:17;;;;;;;4.22;1.42;;;;;;;;;;5072220;28;20032;-80
2020/12/17 16:14:43;;;;;;;2.78;1.20;;;;;;;;;;5075432;28;20468;-81
2020/12/17 16:17:09;;;;;;;18.98;1.70;;;;;;;;;;5062252;28;20032;-80
2020/12/17 16:19:34;;;;;;;5.13;1.40;;;;;;;;;;5058114;28;20035;-81
2020/12/17 16:22:00;;;;;;;7.57;1.50;;;;;;;;;;5057525;28;20465;-81
2020/12/17 16:24:26;;;;;;;5.70;1.30;;;;;;;;;;5048282;28;20090;-81
2020/12/17 16:26:52;;;;;;;2.63;0.93;;;;;;;;;;5059960;28;20031;-80
2020/12/17 16:29:18;;;;;;;2.78;1.33;;;;;;;;;;5058808;28;20025;-81
2020/12/17 16:31:44;;;;;;;13.93;1.30;;;;;;;;;;5057979;28;20040;-81
2020/12/17 16:34:10;;;;;;;4.00;2.00;;;;;;;;;;5044793;28;20021;-81
2020/12/17 16:36:36;;;;;;;3.13;1.55;;;;;;;;;;5060586;28;20039;-82
2020/12/17 16:39:03;;;;;;;3.45;1.80;;;;;;;;;;5059662;28;20039;-81
2020/12/17 16:41:32;;;;;;;3.85;1.70;;;;;;;;;;5055943;28;20029;-81
2020/12/17 16:46:17;;;;;;;4.50;1.27;;;;;;;;;;5081187;28;20920;-81
2020/12/17 16:48:43;;;;;;;2.78;1.42;;;;;;;;;;5067948;28;20032;-81
2020/12/17 16:51:16;;;;;;;3.80;1.30;;;;;;;;;;5075066;28;20561;-82
2020/12/17 16:53:46;;;;;;;8.85;1.10;;;;;;;;;;5076323;28;20071;-82
2020/12/17 16:56:12;;;;;;;3.83;1.30;;;;;;;;;;5068860;28;20029;-81
2020/12/17 16:58:38;;;;;;;3.60;1.30;;;;;;;;;;5070779;28;20031;-81
2020/12/17 17:01:04;;;;;;;2.80;1.40;;;;;;;;;;5065142;28;20028;-82
2020/12/17 17:03:30;;;;;;;6.90;1.63;;;;;;;;;;5075339;28;20398;-81
2020/12/17 17:05:57;;;;;;;2.83;1.27;;;;;;;;;;5073717;28;20035;-81
2020/12/17 17:08:23;;;;;;;2.47;1.23;;;;;;;;;;5070955;28;20021;-81
2020/12/17 17:10:49;;;;;;;2.95;1.60;;;;;;;;;;5071687;28;20100;-81
2020/12/17 17:13:14;;;;;;;10.88;1.88;;;;;;;;;;5076576;28;20031;-81
2020/12/17 17:15:41;;;;;;;8.30;1.63;;;;;;;;;;5076203;28;20028;-81
2020/12/17 17:18:07;;;;;;;3.92;1.85;;;;;;;;;;5074514;28;20128;-81
2020/12/17 17:20:33;;;;;;;3.00;1.60;;;;;;;;;;5078139;28;20103;-81
2020/12/17 17:22:58;;;;;;;8.10;5.70;;;;;;;;;;5072782;28;20025;-81
2020/12/17 17:25:24;;;;;;;6.63;3.50;;;;;;;;;;5071975;28;20723;-81
2020/12/17 17:27:50;;;;;;;11.60;3.30;;;;;;;;;;5073315;28;20052;-81
2020/12/17 17:30:16;;;;;;;5.53;2.15;;;;;;;;;;5074442;28;20024;-82
2020/12/17 17:32:42;;;;;;;9.10;2.15;;;;;;;;;;5070815;28;20027;-81
2020/12/17 17:35:08;;;;;;;2.50;1.30;;;;;;;;;;5072391;28;20029;-81
2020/12/17 17:37:34;;;;;;;5.25;1.40;;;;;;;;;;5072174;28;20029;-81
2020/12/17 17:40:00;;;;;;;3.80;2.10;;;;;;;;;;5074473;28;20484;-81
2020/12/17 17:42:27;;;;;;;9.43;2.03;;;;;;;;;;5071467;28;20513;-81
2020/12/17 17:44:53;;;;;;;5.05;1.55;;;;;;;;;;5075763;28;20035;-81
2020/12/17 17:47:18;;;;;;;6.28;2.22;;;;;;;;;;5075013;28;20142;-81
2020/12/17 17:49:45;;;;;;;3.95;1.70;;;;;;;;;;5070991;28;20049;-81
2020/12/17 17:52:11;;;;;;;4.97;2.45;;;;;;;;;;5074051;28;20028;-81
2020/12/17 17:54:37;;;;;;;6.93;3.33;;;;;;;;;;5064787;28;20032;-81
2020/12/17 17:57:04;;;;;;;10.20;3.25;;;;;;;;;;5066766;28;20049;-81
2020/12/17 17:59:32;;;;;;;4.32;2.75;;;;;;;;;;5057713;28;20455;-81
2020/12/17 18:01:58;;;;;;;5.57;2.65;;;;;;;;;;5057787;28;20056;-81
2020/12/17 18:04:25;;;;;;;6.40;2.83;;;;;;;;;;5057886;28;20057;-82
2020/12/17 18:06:51;;;;;;;8.68;3.92;;;;;;;;;;5062409;28;20025;-82
2020/12/17 18:09:17;;;;;;;18.90;3.88;;;;;;;;;;5060423;28;20036;-82
2020/12/17 18:11:43;;;;;;;19.38;3.60;;;;;;;;;;5057978;28;20052;-82
2020/12/17 18:14:11;;;;;;;21.63;3.00;;;;;;;;;;5058629;28;20029;-81
2020/12/17 18:16:37;;;;;;;14.10;3.08;;;;;;;;;;5060205;28;20024;-81
2020/12/17 18:19:03;;;;;;;19.05;5.90;;;;;;;;;;5060255;28;20024;-81
2020/12/17 18:21:33;;;;;;;20.88;4.93;;;;;;;;;;5056545;28;20773;-81
2020/12/17 18:23:59;;;;;;;17.60;4.57;;;;;;;;;;5052422;28;20032;-81
2020/12/17 18:26:25;;;;;;;14.60;5.20;;;;;;;;;;5060925;28;20029;-81
2020/12/17 18:28:51;;;;;;;15.57;4.32;;;;;;;;;;5056420;28;20025;-81
2020/12/17 18:33:35;;;;;;;25.88;6.55;;;;;;;;;;5104850;27;20351;-82
2020/12/17 18:36:01;;;;;;;26.13;6.28;;;;;;;;;;5085202;28;20101;-83
2020/12/17 18:38:29;;;;;;;18.98;7.47;;;;;;;;;;5080892;28;20388;-83
2020/12/17 18:44:01;;;;;;;14.13;5.47;;;;;;;;;;5084212;28;20562;-83
2020/12/17 18:46:27;;;;;;;22.45;7.47;;;;;;;;;;5085421;28;20036;-82
2020/12/17 18:49:19;;;;;;;18.00;7.00;;;;;;;;;;5097529;28;20473;-82
2020/12/17 18:52:14;;;;;;;20.88;7.18;;;;;;;;;;5089810;28;20067;-82
2020/12/17 18:55:21;;;;;;;32.30;9.30;;;;;;;;;;5082811;28;20033;-82
2020/12/17 19:10:29;;;;;;;38.17;24.30;;;;;;;;;;5112464;27;20383;-82
2020/12/17 19:12:56;;;;;;;51.67;25.83;;;;;;;;;;5097940;28;20031;-81
2020/12/17 19:17:40;;;;;;;39.38;23.05;;;;;;;;;;5087489;27;20405;-80
2020/12/17 19:20:05;;;;;;;39.70;23.52;;;;;;;;;;5087328;28;20029;-81
2020/12/17 19:22:31;;;;;;;53.30;28.08;;;;;;;;;;5086058;28;20081;-80
2020/12/17 19:24:57;;;;;;;54.60;29.05;;;;;;;;;;5090830;28;20024;-80
2020/12/17 19:27:23;;;;;;;45.13;25.88;;;;;;;;;;5085695;28;20024;-80
2020/12/17 19:29:49;;;;;;;47.72;25.02;;;;;;;;;;5085611;28;20088;-80
2020/12/17 19:32:16;;;;;;;47.58;24.80;;;;;;;;;;5087669;28;20032;-81
2020/12/17 19:34:42;;;;;;;42.63;24.63;;;;;;;;;;5088022;28;20096;-81
2020/12/17 19:37:08;;;;;;;53.97;27.20;;;;;;;;;;5097132;28;20634;-80
2020/12/17 19:39:34;;;;;;;49.78;28.10;;;;;;;;;;5085081;28;20518;-82
2020/12/17 19:42:01;;;;;;;49.28;29.35;;;;;;;;;;5086821;28;20027;-83
2020/12/17 19:44:28;;;;;;;48.83;28.85;;;;;;;;;;5085968;28;20374;-82
2020/12/17 19:46:54;;;;;;;50.92;30.88;;;;;;;;;;5084694;28;20070;-83
2020/12/17 19:49:20;;;;;;;72.68;35.13;;;;;;;;;;5090272;28;20020;-83
2020/12/17 19:51:46;;;;;;;62.42;34.30;;;;;;;;;;5102753;28;20043;-83
2020/12/17 19:54:13;;;;;;;59.55;33.25;;;;;;;;;;5084124;28;20119;-83
2020/12/17 19:56:39;;;;;;;48.60;27.33;;;;;;;;;;5088289;28;20028;-82
2020/12/17 19:59:05;;;;;;;52.58;28.40;;;;;;;;;;5088635;28;20024;-83
2020/12/17 20:01:35;;;;;;;47.03;29.02;;;;;;;;;;5076583;28;20023;-82
2020/12/17 20:04:01;;;;;;;54.97;30.67;;;;;;;;;;5084496;28;20027;-83
2020/12/17 20:06:31;;;;;;;54.42;32.58;;;;;;;;;;5078179;28;20021;-81
2020/12/17 20:08:57;;;;;;;59.83;32.67;;;;;;;;;;5080990;28;20032;-81
2020/12/17 20:11:23;;;;;;;49.15;30.92;;;;;;;;;;5076557;28;20096;-82
2020/12/17 20:13:49;;;;;;;62.28;31.73;;;;;;;;;;5073579;28;20186;-82
2020/12/17 20:16:16;;;;;;;65.63;31.63;;;;;;;;;;5075640;28;20029;-82
2020/12/17 20:18:43;;;;;;;64.75;34.50;;;;;;;;;;5078147;28;20807;-82
2020/12/17 20:21:09;;;;;;;62.45;30.95;;;;;;;;;;5074913;28;20043;-82
2020/12/17 20:23:35;;;;;;;48.13;26.40;;;;;;;;;;5079529;28;20028;-82
2020/12/17 20:26:01;;;;;;;37.90;23.83;;;;;;;;;;5084781;28;20073;-81
2020/12/17 20:28:27;;;;;;;37.15;22.80;;;;;;;;;;5067849;28;20053;-81
2020/12/17 20:30:53;;;;;;;67.47;34.45;;;;;;;;;;5065808;28;20043;-81
2020/12/17 20:33:19;;;;;;;36.05;22.15;;;;;;;;;;5063229;28;20029;-81
2020/12/17 20:35:45;;;;;;;29.63;20.50;;;;;;;;;;5060364;28;20571;-82
2020/12/17 20:38:11;;;;;;;28.08;18.95;;;;;;;;;;5059712;28;20039;-81
2020/12/17 20:40:37;;;;;;;31.23;21.23;;;;;;;;;;5057922;28;20107;-82
2020/12/17 20:43:03;;;;;;;29.08;16.63;;;;;;;;;;5061863;28;20029;-82
2020/12/17 20:45:29;;;;;;;32.00;18.13;;;;;;;;;;5064363;28;20534;-82
2020/12/17 20:47:55;;;;;;;19.38;13.95;;;;;;;;;;5071410;28;20095;-82
2020/12/17 20:50:21;;;;;;;21.52;14.75;;;;;;;;;;5065822;28;20063;-81
2020/12/17 20:52:47;;;;;;;24.48;14.50;;;;;;;;;;5062144;28;20017;-82
2020/12/17 20:55:15;;;;;;;20.42;13.20;;;;;;;;;;5059354;28;20040;-82
2020/12/17 20:57:43;;;;;;;30.17;17.60;;;;;;;;;;5067941;28;20021;-82
2020/12/17 21:00:10;;;;;;;34.55;18.85;;;;;;;;;;5064822;28;20036;-81
2020/12/17 21:02:36;;;;;;;28.20;15.32;;;;;;;;;;5070813;28;20122;-81
2020/12/17 21:05:02;;;;;;;21.33;13.45;;;;;;;;;;5066456;28;20043;-82
2020/12/17 21:07:28;;;;;;;18.75;13.93;;;;;;;;;;5069720;28;20036;-82
2020/12/17 21:09:54;;;;;;;22.92;13.68;;;;;;;;;;5067344;28;20028;-81
2020/12/17 21:12:20;;;;;;;20.80;13.43;;;;;;;;;;5060406;28;20025;-81
2020/12/17 21:14:46;;;;;;;18.50;13.25;;;;;;;;;;5068088;28;20036;-82
2020/12/17 21:17:12;;;;;;;22.88;12.13;;;;;;;;;;5063530;28;20037;-82
2020/12/17 21:19:38;;;;;;;20.42;11.77;;;;;;;;;;5067141;28;20028;-82